Larvik — C6VC2 — position and weather

sailwx.info

Track history (hours):
 
Tides and Currents Weather Stations Pressure Air Temp Water Temp Dewpoint Dewpoint Depression Visibility Wind Speed Wind Dir Waves Ship Positions

Larvik

Last reported at 2017-Mar-15 07:26 UTC. Time now 2017-Mar-24 06:13 UTC.
Position N 29°04' W 116°56'.
Warning: this ship's position is 8 days out of date.

Length 214 m; draft 7.8 m.

Type: Ship (hazmat cat D). MMSI: 308371000.

Date/timePositionNaut miles runAvg speedWind from/ knotsBaromVisibWave heightAir tempDewpointWater temp
2017-Mar-15 07:26N 29°04' W 116°56'1612.9
2017-Mar-15 06:12N 29°17' W 117°07'2313.1
2017-Mar-15 04:25N 29°36' W 117°22'1213.0
2017-Mar-15 03:30N 29°45' W 117°30'1312.9
2017-Mar-15 02:28N 29°56' W 117°39'1213.0
2017-Mar-15 01:33N 30°06' W 117°47'1313.1
2017-Mar-15 00:33N 30°17' W 117°56'1313.1
2017-Mar-14 23:33N 30°27' W 118°05'1312.9
2017-Mar-14 22:33N 30°38' W 118°14'1412.8
2017-Mar-14 21:30N 30°49' W 118°23'1212.6
2017-Mar-14 20:33N 30°58' W 118°32'1212.4
2017-Mar-14 19:33N 31°08' W 118°40'1212.5
2017-Mar-14 18:33N 31°17' W 118°50'1312.5
2017-Mar-14 17:33N 31°27' W 118°60'1212.3
2017-Mar-14 16:33N 31°36' W 119°10'1212.2
2017-Mar-14 15:33N 31°45' W 119°20'1212.3
2017-Mar-14 14:33N 31°54' W 119°30'1212.3
2017-Mar-14 13:33N 32°03' W 119°39'1312.5
2017-Mar-14 12:33N 32°12' W 119°49'1312.6
2017-Mar-14 11:33N 32°21' W 119°60'1312.7
2017-Mar-14 10:33N 32°31' W 120°10'1312.5
2017-Mar-14 09:33N 32°39' W 120°20'1211.8
2017-Mar-14 08:33N 32°48' W 120°29'1212.4
2017-Mar-14 07:33N 32°57' W 120°40'1312.8
2017-Mar-14 06:33N 33°07' W 120°50'1212.4
2017-Mar-14 05:33N 33°16' W 120°59'1212.4
2017-Mar-14 04:33N 33°25' W 121°10'1312.7
2017-Mar-14 03:33N 33°34' W 121°20'1312.8
2017-Mar-14 02:33N 33°44' W 121°31'1312.8
2017-Mar-14 01:33N 33°53' W 121°41'1312.9
2017-Mar-14 00:33N 34°03' W 121°52'1212.2
2017-Mar-13 23:33N 34°12' W 122°00'1312.6
2017-Mar-13 22:33N 34°25' W 122°02'1212.2
2017-Mar-13 21:33N 34°37' W 122°07'1212.3
2017-Mar-13 20:33N 34°49' W 122°05'1312.5
2017-Mar-13 19:33N 35°01' W 122°07'1212.4
2017-Mar-13 18:33N 35°14' W 122°09'1212.2
2017-Mar-13 17:33N 35°26' W 122°11'1313.1
2017-Mar-13 16:33N 35°39' W 122°13'1313.4
2017-Mar-13 15:33N 35°52' W 122°15'1313.1
2017-Mar-13 14:33N 36°05' W 122°17'1312.8
2017-Mar-13 13:33N 36°18' W 122°19'1312.7
2017-Mar-13 12:33N 36°30' W 122°24'1312.7
2017-Mar-13 11:33N 36°41' W 122°30'1312.6
2017-Mar-13 10:33N 36°53' W 122°36'1312.7
2017-Mar-13 09:33N 37°05' W 122°41'1212.3
2017-Mar-13 08:33N 37°17' W 122°44'1312.6
2017-Mar-13 07:33N 37°30' W 122°44'1312.6
2017-Mar-13 06:33N 37°42' W 122°42'9 9.2
2017-Mar-13 05:33N 37°48' W 122°33'8 8.1
2017-Mar-13 04:33N 37°48' W 122°23'3 2.8
2017-Mar-13 03:32N 37°46' W 122°20'0 0.2
2017-Mar-13 02:31N 37°46' W 122°20'0 0.0
2017-Mar-13 01:31N 37°46' W 122°20'0 0.0
2017-Mar-13 00:31N 37°46' W 122°20'0 0.0
2017-Mar-12 23:31N 37°46' W 122°20'0 0.0
2017-Mar-12 22:31N 37°46' W 122°20'0 0.0
2017-Mar-12 21:31N 37°46' W 122°20'0 0.3
2017-Mar-12 20:31N 37°46' W 122°20'0 0.0
2017-Mar-12 19:31N 37°46' W 122°20'0 0.0
2017-Mar-12 18:31N 37°46' W 122°20'0 0.0
2017-Mar-12 17:32N 37°46' W 122°20'7 7.2
2017-Mar-12 16:33N 37°52' W 122°25'1111.1
2017-Mar-12 15:33N 38°03' W 122°21'10 0.5
2017-Mar-11 20:08N 38°02' W 122°08'0 0.0
2017-Mar-10 08:30N 38°02' W 122°08'5 4.8
2017-Mar-10 07:33N 38°04' W 122°13'1010.2
2017-Mar-10 06:33N 37°60' W 122°25'1110.7
2017-Mar-10 05:33N 37°49' W 122°24'4 3.8
2017-Mar-10 04:33N 37°46' W 122°21'0 0.0
2017-Mar-10 03:33N 37°46' W 122°21'0 0.1
2017-Mar-10 02:33N 37°46' W 122°21'0 0.1
2017-Mar-10 01:33N 37°46' W 122°21'0 0.2
2017-Mar-10 00:33N 37°46' W 122°21'0 0.1
2017-Mar-09 23:33N 37°46' W 122°21'0 0.0
2017-Mar-09 22:33N 37°46' W 122°21'0 0.0
2017-Mar-09 21:33N 37°46' W 122°21'0 0.0
2017-Mar-09 20:33N 37°46' W 122°21'0 0.0
2017-Mar-09 19:33N 37°46' W 122°21'0 0.1
2017-Mar-09 18:33N 37°46' W 122°21'0 0.3
2017-Mar-09 17:33N 37°46' W 122°21'0 0.2
2017-Mar-09 16:33N 37°46' W 122°21'1 1.0
2017-Mar-09 15:32N 37°45' W 122°20'0 0.0
2017-Mar-09 14:32N 37°45' W 122°20'0 0.1
2017-Mar-09 13:32N 37°45' W 122°20'0 0.1
2017-Mar-09 12:32N 37°45' W 122°21'0 0.2
2017-Mar-09 11:32N 37°45' W 122°21'0 0.0
2017-Mar-09 10:32N 37°45' W 122°21'0 0.1
2017-Mar-09 09:32N 37°45' W 122°21'0 0.1
2017-Mar-09 08:32N 37°45' W 122°21'0 0.1
2017-Mar-09 07:32N 37°45' W 122°21'0 0.3
2017-Mar-09 06:32N 37°45' W 122°20'0 0.0
2017-Mar-09 05:32N 37°45' W 122°20'0 0.0
2017-Mar-09 04:32N 37°45' W 122°20'0 0.0
2017-Mar-09 03:32N 37°45' W 122°20'0 0.0
2017-Mar-09 02:26N 37°45' W 122°20'0 0.1
2017-Mar-09 01:32N 37°45' W 122°20'0 0.2
2017-Mar-09 00:32N 37°45' W 122°21'0 0.2
2017-Mar-08 23:32N 37°45' W 122°21'0 0.0
2017-Mar-08 22:32N 37°45' W 122°21'0 0.0
2017-Mar-08 21:32N 37°45' W 122°21'0 0.0
2017-Mar-08 20:32N 37°45' W 122°21'0 0.0
2017-Mar-08 19:32N 37°45' W 122°21'0 0.1
2017-Mar-08 18:32N 37°45' W 122°21'0 0.1
2017-Mar-08 17:32N 37°45' W 122°21'0 0.2
2017-Mar-08 16:29N 37°45' W 122°20'0 0.1
2017-Mar-08 15:32N 37°45' W 122°20'0 0.0
2017-Mar-08 14:32N 37°45' W 122°20'0 0.1
2017-Mar-08 13:32N 37°45' W 122°20'0 0.1
2017-Mar-08 12:32N 37°45' W 122°20'0 0.1
2017-Mar-08 11:32N 37°45' W 122°21'0 0.2
2017-Mar-08 10:32N 37°45' W 122°21'0 0.1
2017-Mar-08 09:32N 37°45' W 122°21'0 0.0
2017-Mar-08 08:32N 37°45' W 122°21'0 0.0
2017-Mar-08 07:32N 37°45' W 122°21'0 0.2
2017-Mar-08 06:32N 37°45' W 122°21'0 0.1
2017-Mar-08 05:32N 37°45' W 122°20'0 0.0
2017-Mar-08 04:32N 37°45' W 122°20'0 0.0
2017-Mar-08 03:32N 37°45' W 122°20'0 0.0
2017-Mar-08 02:32N 37°45' W 122°20'0 0.0
2017-Mar-08 01:32N 37°45' W 122°20'0 0.1
2017-Mar-08 00:32N 37°45' W 122°20'0 0.1
2017-Mar-07 23:31N 37°45' W 122°21'0 0.2
2017-Mar-07 22:31N 37°45' W 122°21'0 0.0
2017-Mar-07 21:31N 37°45' W 122°21'0 0.0
2017-Mar-07 20:31N 37°45' W 122°21'0 0.1
2017-Mar-07 19:31N 37°45' W 122°21'0 0.0
2017-Mar-07 18:31N 37°45' W 122°21'0 0.0
2017-Mar-07 17:31N 37°45' W 122°21'0 0.1
2017-Mar-07 16:31N 37°45' W 122°21'0 0.2
2017-Mar-07 15:31N 37°45' W 122°20'0 0.1
2017-Mar-07 14:31N 37°45' W 122°20'0 0.0
2017-Mar-07 13:31N 37°45' W 122°20'0 0.0
2017-Mar-07 12:31N 37°45' W 122°20'0 0.1
2017-Mar-07 11:31N 37°45' W 122°20'0 0.1
2017-Mar-07 10:31N 37°45' W 122°21'0 0.2
2017-Mar-07 09:31N 37°45' W 122°21'0 0.1
2017-Mar-07 08:31N 37°45' W 122°21'0 0.0
2017-Mar-07 07:31N 37°45' W 122°21'0 0.0
2017-Mar-07 06:31N 37°45' W 122°21'0 0.2
2017-Mar-07 05:31N 37°45' W 122°20'0 0.1
2017-Mar-07 04:31N 37°45' W 122°20'0 0.1
2017-Mar-07 03:31N 37°45' W 122°20'0 0.0
2017-Mar-07 02:31N 37°45' W 122°20'0 0.0
2017-Mar-07 01:31N 37°45' W 122°20'0 0.0
2017-Mar-07 00:31N 37°45' W 122°20'0 0.0
2017-Mar-06 23:31N 37°45' W 122°20'0 0.1
2017-Mar-06 22:31N 37°45' W 122°21'0 0.2
2017-Mar-06 21:31N 37°45' W 122°21'0 0.0
2017-Mar-06 20:31N 37°45' W 122°21'0 0.0
2017-Mar-06 19:31N 37°45' W 122°21'0 0.0
2017-Mar-06 18:31N 37°45' W 122°21'0 0.0
2017-Mar-06 17:31N 37°45' W 122°21'0 0.0
2017-Mar-06 16:31N 37°45' W 122°21'0 0.1
2017-Mar-06 15:31N 37°45' W 122°21'0 0.2
2017-Mar-06 14:31N 37°45' W 122°20'0 0.1
2017-Mar-06 13:31N 37°45' W 122°20'0 0.1
2017-Mar-06 12:31N 37°45' W 122°20'0 0.0
2017-Mar-06 11:31N 37°45' W 122°20'0 0.1
2017-Mar-06 10:31N 37°45' W 122°21'0 0.0
2017-Mar-06 09:31N 37°45' W 122°21'0 0.2
2017-Mar-06 08:31N 37°45' W 122°21'0 0.1
2017-Mar-06 07:31N 37°45' W 122°21'0 0.1
2017-Mar-06 06:31N 37°45' W 122°21'0 0.1
2017-Mar-06 05:31N 37°45' W 122°21'0 0.1
2017-Mar-06 04:31N 37°45' W 122°21'0 0.2
2017-Mar-06 03:31N 37°45' W 122°20'0 0.1
2017-Mar-06 02:31N 37°45' W 122°20'0 0.0
2017-Mar-06 01:31N 37°45' W 122°20'0 0.0
2017-Mar-06 00:31N 37°45' W 122°20'0 0.0
2017-Mar-05 23:31N 37°45' W 122°20'0 0.1
2017-Mar-05 22:31N 37°45' W 122°21'0 0.1
2017-Mar-05 21:31N 37°45' W 122°20'0 0.2
2017-Mar-05 20:31N 37°45' W 122°21'0 0.0
2017-Mar-05 19:31N 37°45' W 122°21'0 0.0
2017-Mar-05 18:31N 37°45' W 122°21'0 0.0
2017-Mar-05 17:31N 37°45' W 122°21'0 0.0
2017-Mar-05 16:31N 37°45' W 122°21'0 0.0
2017-Mar-05 15:31N 37°45' W 122°21'0 0.1
2017-Mar-05 14:31N 37°45' W 122°20'0 0.3
2017-Mar-05 13:31N 37°45' W 122°20'0 0.0
2017-Mar-05 12:31N 37°45' W 122°20'0 0.0
2017-Mar-05 11:31N 37°45' W 122°20'0 0.1
2017-Mar-05 10:31N 37°45' W 122°20'0 0.0
2017-Mar-05 09:31N 37°45' W 122°20'0 0.0
2017-Mar-05 08:31N 37°45' W 122°20'0 0.2
2017-Mar-05 07:31N 37°45' W 122°21'  
Track history (hours):
 
Tides and Currents Weather Stations Pressure Air Temp Water Temp Dewpoint Dewpoint Depression Visibility Wind Speed Wind Dir Waves Ship Positions

Larvik

Last reported at 2017-Mar-15 07:26 UTC. Time now 2017-Mar-24 06:13 UTC.
Position N 29°04' W 116°56'.
Warning: this ship's position is 8 days out of date.

Length 214 m; draft 7.8 m.

Type: Ship (hazmat cat D). MMSI: 308371000.

Date/timePositionNaut miles runAvg speedWind from/ knotsBaromVisibWave heightAir tempDewpointWater temp
2017-Mar-15 07:26N 29°04' W 116°56'1612.9
2017-Mar-15 06:12N 29°17' W 117°07'2313.1
2017-Mar-15 04:25N 29°36' W 117°22'1213.0
2017-Mar-15 03:30N 29°45' W 117°30'1312.9
2017-Mar-15 02:28N 29°56' W 117°39'1213.0
2017-Mar-15 01:33N 30°06' W 117°47'1313.1
2017-Mar-15 00:33N 30°17' W 117°56'1313.1
2017-Mar-14 23:33N 30°27' W 118°05'1312.9
2017-Mar-14 22:33N 30°38' W 118°14'1412.8
2017-Mar-14 21:30N 30°49' W 118°23'1212.6
2017-Mar-14 20:33N 30°58' W 118°32'1212.4
2017-Mar-14 19:33N 31°08' W 118°40'1212.5
2017-Mar-14 18:33N 31°17' W 118°50'1312.5
2017-Mar-14 17:33N 31°27' W 118°60'1212.3
2017-Mar-14 16:33N 31°36' W 119°10'1212.2
2017-Mar-14 15:33N 31°45' W 119°20'1212.3
2017-Mar-14 14:33N 31°54' W 119°30'1212.3
2017-Mar-14 13:33N 32°03' W 119°39'1312.5
2017-Mar-14 12:33N 32°12' W 119°49'1312.6
2017-Mar-14 11:33N 32°21' W 119°60'1312.7
2017-Mar-14 10:33N 32°31' W 120°10'1312.5
2017-Mar-14 09:33N 32°39' W 120°20'1211.8
2017-Mar-14 08:33N 32°48' W 120°29'1212.4
2017-Mar-14 07:33N 32°57' W 120°40'1312.8
2017-Mar-14 06:33N 33°07' W 120°50'1212.4
2017-Mar-14 05:33N 33°16' W 120°59'1212.4
2017-Mar-14 04:33N 33°25' W 121°10'1312.7
2017-Mar-14 03:33N 33°34' W 121°20'1312.8
2017-Mar-14 02:33N 33°44' W 121°31'1312.8
2017-Mar-14 01:33N 33°53' W 121°41'1312.9
2017-Mar-14 00:33N 34°03' W 121°52'1212.2
2017-Mar-13 23:33N 34°12' W 122°00'1312.6
2017-Mar-13 22:33N 34°25' W 122°02'1212.2
2017-Mar-13 21:33N 34°37' W 122°07'1212.3
2017-Mar-13 20:33N 34°49' W 122°05'1312.5
2017-Mar-13 19:33N 35°01' W 122°07'1212.4
2017-Mar-13 18:33N 35°14' W 122°09'1212.2
2017-Mar-13 17:33N 35°26' W 122°11'1313.1
2017-Mar-13 16:33N 35°39' W 122°13'1313.4
2017-Mar-13 15:33N 35°52' W 122°15'1313.1
2017-Mar-13 14:33N 36°05' W 122°17'1312.8
2017-Mar-13 13:33N 36°18' W 122°19'1312.7
2017-Mar-13 12:33N 36°30' W 122°24'1312.7
2017-Mar-13 11:33N 36°41' W 122°30'1312.6
2017-Mar-13 10:33N 36°53' W 122°36'1312.7
2017-Mar-13 09:33N 37°05' W 122°41'1212.3
2017-Mar-13 08:33N 37°17' W 122°44'1312.6
2017-Mar-13 07:33N 37°30' W 122°44'1312.6
2017-Mar-13 06:33N 37°42' W 122°42'9 9.2
2017-Mar-13 05:33N 37°48' W 122°33'8 8.1
2017-Mar-13 04:33N 37°48' W 122°23'3 2.8
2017-Mar-13 03:32N 37°46' W 122°20'0 0.2
2017-Mar-13 02:31N 37°46' W 122°20'0 0.0
2017-Mar-13 01:31N 37°46' W 122°20'0 0.0
2017-Mar-13 00:31N 37°46' W 122°20'0 0.0
2017-Mar-12 23:31N 37°46' W 122°20'0 0.0
2017-Mar-12 22:31N 37°46' W 122°20'0 0.0
2017-Mar-12 21:31N 37°46' W 122°20'0 0.3
2017-Mar-12 20:31N 37°46' W 122°20'0 0.0
2017-Mar-12 19:31N 37°46' W 122°20'0 0.0
2017-Mar-12 18:31N 37°46' W 122°20'0 0.0
2017-Mar-12 17:32N 37°46' W 122°20'7 7.2
2017-Mar-12 16:33N 37°52' W 122°25'1111.1
2017-Mar-12 15:33N 38°03' W 122°21'10 0.5
2017-Mar-11 20:08N 38°02' W 122°08'0 0.0
2017-Mar-10 08:30N 38°02' W 122°08'5 4.8
2017-Mar-10 07:33N 38°04' W 122°13'1010.2
2017-Mar-10 06:33N 37°60' W 122°25'1110.7
2017-Mar-10 05:33N 37°49' W 122°24'4 3.8
2017-Mar-10 04:33N 37°46' W 122°21'0 0.0
2017-Mar-10 03:33N 37°46' W 122°21'0 0.1
2017-Mar-10 02:33N 37°46' W 122°21'0 0.1
2017-Mar-10 01:33N 37°46' W 122°21'0 0.2
2017-Mar-10 00:33N 37°46' W 122°21'0 0.1
2017-Mar-09 23:33N 37°46' W 122°21'0 0.0
2017-Mar-09 22:33N 37°46' W 122°21'0 0.0
2017-Mar-09 21:33N 37°46' W 122°21'0 0.0
2017-Mar-09 20:33N 37°46' W 122°21'0 0.0
2017-Mar-09 19:33N 37°46' W 122°21'0 0.1
2017-Mar-09 18:33N 37°46' W 122°21'0 0.3
2017-Mar-09 17:33N 37°46' W 122°21'0 0.2
2017-Mar-09 16:33N 37°46' W 122°21'1 1.0
2017-Mar-09 15:32N 37°45' W 122°20'0 0.0
2017-Mar-09 14:32N 37°45' W 122°20'0 0.1
2017-Mar-09 13:32N 37°45' W 122°20'0 0.1
2017-Mar-09 12:32N 37°45' W 122°21'0 0.2
2017-Mar-09 11:32N 37°45' W 122°21'0 0.0
2017-Mar-09 10:32N 37°45' W 122°21'0 0.1
2017-Mar-09 09:32N 37°45' W 122°21'0 0.1
2017-Mar-09 08:32N 37°45' W 122°21'0 0.1
2017-Mar-09 07:32N 37°45' W 122°21'0 0.3
2017-Mar-09 06:32N 37°45' W 122°20'0 0.0
2017-Mar-09 05:32N 37°45' W 122°20'0 0.0
2017-Mar-09 04:32N 37°45' W 122°20'0 0.0
2017-Mar-09 03:32N 37°45' W 122°20'0 0.0
2017-Mar-09 02:26N 37°45' W 122°20'0 0.1
2017-Mar-09 01:32N 37°45' W 122°20'0 0.2
2017-Mar-09 00:32N 37°45' W 122°21'0 0.2
2017-Mar-08 23:32N 37°45' W 122°21'0 0.0
2017-Mar-08 22:32N 37°45' W 122°21'0 0.0
2017-Mar-08 21:32N 37°45' W 122°21'0 0.0
2017-Mar-08 20:32N 37°45' W 122°21'0 0.0
2017-Mar-08 19:32N 37°45' W 122°21'0 0.1
2017-Mar-08 18:32N 37°45' W 122°21'0 0.1
2017-Mar-08 17:32N 37°45' W 122°21'0 0.2
2017-Mar-08 16:29N 37°45' W 122°20'0 0.1
2017-Mar-08 15:32N 37°45' W 122°20'0 0.0
2017-Mar-08 14:32N 37°45' W 122°20'0 0.1
2017-Mar-08 13:32N 37°45' W 122°20'0 0.1
2017-Mar-08 12:32N 37°45' W 122°20'0 0.1
2017-Mar-08 11:32N 37°45' W 122°21'0 0.2
2017-Mar-08 10:32N 37°45' W 122°21'0 0.1
2017-Mar-08 09:32N 37°45' W 122°21'0 0.0
2017-Mar-08 08:32N 37°45' W 122°21'0 0.0
2017-Mar-08 07:32N 37°45' W 122°21'0 0.2
2017-Mar-08 06:32N 37°45' W 122°21'0 0.1
2017-Mar-08 05:32N 37°45' W 122°20'0 0.0
2017-Mar-08 04:32N 37°45' W 122°20'0 0.0
2017-Mar-08 03:32N 37°45' W 122°20'0 0.0
2017-Mar-08 02:32N 37°45' W 122°20'0 0.0
2017-Mar-08 01:32N 37°45' W 122°20'0 0.1
2017-Mar-08 00:32N 37°45' W 122°20'0 0.1
2017-Mar-07 23:31N 37°45' W 122°21'0 0.2
2017-Mar-07 22:31N 37°45' W 122°21'0 0.0
2017-Mar-07 21:31N 37°45' W 122°21'0 0.0
2017-Mar-07 20:31N 37°45' W 122°21'0 0.1
2017-Mar-07 19:31N 37°45' W 122°21'0 0.0
2017-Mar-07 18:31N 37°45' W 122°21'0 0.0
2017-Mar-07 17:31N 37°45' W 122°21'0 0.1
2017-Mar-07 16:31N 37°45' W 122°21'0 0.2
2017-Mar-07 15:31N 37°45' W 122°20'0 0.1
2017-Mar-07 14:31N 37°45' W 122°20'0 0.0
2017-Mar-07 13:31N 37°45' W 122°20'0 0.0
2017-Mar-07 12:31N 37°45' W 122°20'0 0.1
2017-Mar-07 11:31N 37°45' W 122°20'0 0.1
2017-Mar-07 10:31N 37°45' W 122°21'0 0.2
2017-Mar-07 09:31N 37°45' W 122°21'0 0.1
2017-Mar-07 08:31N 37°45' W 122°21'0 0.0
2017-Mar-07 07:31N 37°45' W 122°21'0 0.0
2017-Mar-07 06:31N 37°45' W 122°21'0 0.2
2017-Mar-07 05:31N 37°45' W 122°20'0 0.1
2017-Mar-07 04:31N 37°45' W 122°20'0 0.1
2017-Mar-07 03:31N 37°45' W 122°20'0 0.0
2017-Mar-07 02:31N 37°45' W 122°20'0 0.0
2017-Mar-07 01:31N 37°45' W 122°20'0 0.0
2017-Mar-07 00:31N 37°45' W 122°20'0 0.0
2017-Mar-06 23:31N 37°45' W 122°20'0 0.1
2017-Mar-06 22:31N 37°45' W 122°21'0 0.2
2017-Mar-06 21:31N 37°45' W 122°21'0 0.0
2017-Mar-06 20:31N 37°45' W 122°21'0 0.0
2017-Mar-06 19:31N 37°45' W 122°21'0 0.0
2017-Mar-06 18:31N 37°45' W 122°21'0 0.0
2017-Mar-06 17:31N 37°45' W 122°21'0 0.0
2017-Mar-06 16:31N 37°45' W 122°21'0 0.1
2017-Mar-06 15:31N 37°45' W 122°21'0 0.2
2017-Mar-06 14:31N 37°45' W 122°20'0 0.1
2017-Mar-06 13:31N 37°45' W 122°20'0 0.1
2017-Mar-06 12:31N 37°45' W 122°20'0 0.0
2017-Mar-06 11:31N 37°45' W 122°20'0 0.1
2017-Mar-06 10:31N 37°45' W 122°21'0 0.0
2017-Mar-06 09:31N 37°45' W 122°21'0 0.2
2017-Mar-06 08:31N 37°45' W 122°21'0 0.1
2017-Mar-06 07:31N 37°45' W 122°21'0 0.1
2017-Mar-06 06:31N 37°45' W 122°21'0 0.1
2017-Mar-06 05:31N 37°45' W 122°21'0 0.1
2017-Mar-06 04:31N 37°45' W 122°21'0 0.2
2017-Mar-06 03:31N 37°45' W 122°20'0 0.1
2017-Mar-06 02:31N 37°45' W 122°20'0 0.0
2017-Mar-06 01:31N 37°45' W 122°20'0 0.0
2017-Mar-06 00:31N 37°45' W 122°20'0 0.0
2017-Mar-05 23:31N 37°45' W 122°20'0 0.1
2017-Mar-05 22:31N 37°45' W 122°21'0 0.1
2017-Mar-05 21:31N 37°45' W 122°20'0 0.2
2017-Mar-05 20:31N 37°45' W 122°21'0 0.0
2017-Mar-05 19:31N 37°45' W 122°21'0 0.0
2017-Mar-05 18:31N 37°45' W 122°21'0 0.0
2017-Mar-05 17:31N 37°45' W 122°21'0 0.0
2017-Mar-05 16:31N 37°45' W 122°21'0 0.0
2017-Mar-05 15:31N 37°45' W 122°21'0 0.1
2017-Mar-05 14:31N 37°45' W 122°20'0 0.3
2017-Mar-05 13:31N 37°45' W 122°20'0 0.0
2017-Mar-05 12:31N 37°45' W 122°20'0 0.0
2017-Mar-05 11:31N 37°45' W 122°20'0 0.1
2017-Mar-05 10:31N 37°45' W 122°20'0 0.0
2017-Mar-05 09:31N 37°45' W 122°20'0 0.0
2017-Mar-05 08:31N 37°45' W 122°20'0 0.2
2017-Mar-05 07:31N 37°45' W 122°21'  

Dump ship's entire track history